Philadelphia, Pennsylvania
Traffic Map
Current Weather Conditions
Philadelphia, Pennsylvania
Overcast
Overcast
45°
Feels Like: 40°
Wind Chill: 40° Ceiling: 6000
Heat Index: 45° Visibility: 10mi
Dew Point: 24° Wind: 9mph
Humidity: 44% Direction: 360° (N)
Pressure: 29.81in Gusts: 20mph
Raw Report DataKPHL 280154Z 36008G17KT 10SM OVC060 07/M04 A2981 RMK AO2 SLP095 T00721044 $
Traffic Incident Summary
Active as of:
Severity:
Category:
InformationThere was an issue retrieving the traffic information for this location. Please try a different location or try again shortly.
Advertisements
Track Severe Weather on mobile